sensor_id;sensor_type;location;lat;lon;timestamp;P1;durP1;ratioP1;P2;durP2;ratioP2
30398;SDS011;17195;50.838;7.214;2022-11-11T00:02:02;7.70;;;3.65;;
30398;SDS011;17195;50.838;7.214;2022-11-11T00:04:28;8.30;;;3.47;;
30398;SDS011;17195;50.838;7.214;2022-11-11T00:06:53;7.50;;;3.55;;
30398;SDS011;17195;50.838;7.214;2022-11-11T00:09:19;9.65;;;3.78;;
30398;SDS011;17195;50.838;7.214;2022-11-11T00:11:44;5.50;;;3.70;;
30398;SDS011;17195;50.838;7.214;2022-11-11T00:14:10;5.75;;;3.60;;
30398;SDS011;17195;50.838;7.214;2022-11-11T00:16:35;8.45;;;3.80;;
30398;SDS011;17195;50.838;7.214;2022-11-11T00:19:21;9.55;;;3.83;;
30398;SDS011;17195;50.838;7.214;2022-11-11T00:22:10;9.38;;;3.80;;
30398;SDS011;17195;50.838;7.214;2022-11-11T00:25:02;7.85;;;4.22;;
30398;SDS011;17195;50.838;7.214;2022-11-11T00:27:31;8.05;;;4.07;;
30398;SDS011;17195;50.838;7.214;2022-11-11T00:29:57;14.73;;;8.05;;
30398;SDS011;17195;50.838;7.214;2022-11-11T00:32:22;24.15;;;9.90;;
30398;SDS011;17195;50.838;7.214;2022-11-11T00:34:49;13.32;;;6.60;;
30398;SDS011;17195;50.838;7.214;2022-11-11T00:37:33;11.50;;;5.65;;
30398;SDS011;17195;50.838;7.214;2022-11-11T00:39:59;7.07;;;3.78;;
30398;SDS011;17195;50.838;7.214;2022-11-11T00:42:25;9.57;;;4.72;;
30398;SDS011;17195;50.838;7.214;2022-11-11T00:44:51;11.10;;;4.55;;
30398;SDS011;17195;50.838;7.214;2022-11-11T00:47:17;8.02;;;4.45;;
30398;SDS011;17195;50.838;7.214;2022-11-11T00:50:02;9.85;;;4.53;;
30398;SDS011;17195;50.838;7.214;2022-11-11T00:52:47;8.68;;;4.65;;
30398;SDS011;17195;50.838;7.214;2022-11-11T00:55:13;12.77;;;4.38;;
30398;SDS011;17195;50.838;7.214;2022-11-11T00:57:39;9.38;;;4.30;;
30398;SDS011;17195;50.838;7.214;2022-11-11T01:00:05;7.95;;;4.80;;
30398;SDS011;17195;50.838;7.214;2022-11-11T01:02:31;10.23;;;5.15;;
30398;SDS011;17195;50.838;7.214;2022-11-11T01:04:56;10.15;;;5.80;;
30398;SDS011;17195;50.838;7.214;2022-11-11T01:07:22;9.90;;;5.60;;
30398;SDS011;17195;50.838;7.214;2022-11-11T01:09:48;10.73;;;6.15;;
30398;SDS011;17195;50.838;7.214;2022-11-11T01:12:13;11.63;;;6.20;;
30398;SDS011;17195;50.838;7.214;2022-11-11T01:14:39;9.55;;;5.22;;
30398;SDS011;17195;50.838;7.214;2022-11-11T01:17:05;9.75;;;5.07;;
30398;SDS011;17195;50.838;7.214;2022-11-11T01:19:31;12.05;;;5.93;;
30398;SDS011;17195;50.838;7.214;2022-11-11T01:21:57;10.82;;;6.60;;
30398;SDS011;17195;50.838;7.214;2022-11-11T01:24:23;8.52;;;5.53;;
30398;SDS011;17195;50.838;7.214;2022-11-11T01:26:49;9.77;;;5.22;;
30398;SDS011;17195;50.838;7.214;2022-11-11T01:29:14;10.55;;;5.28;;
30398;SDS011;17195;50.838;7.214;2022-11-11T01:31:40;7.60;;;4.75;;
30398;SDS011;17195;50.838;7.214;2022-11-11T01:34:06;11.00;;;4.97;;
30398;SDS011;17195;50.838;7.214;2022-11-11T01:36:31;10.23;;;5.05;;
30398;SDS011;17195;50.838;7.214;2022-11-11T01:38:57;7.63;;;4.15;;
30398;SDS011;17195;50.838;7.214;2022-11-11T01:41:34;6.72;;;3.80;;
30398;SDS011;17195;50.838;7.214;2022-11-11T01:49:42;9.40;;;4.47;;
30398;SDS011;17195;50.838;7.214;2022-11-11T01:52:29;13.23;;;6.00;;
30398;SDS011;17195;50.838;7.214;2022-11-11T01:55:04;15.23;;;5.18;;
30398;SDS011;17195;50.838;7.214;2022-11-11T02:00:11;11.68;;;5.72;;
30398;SDS011;17195;50.838;7.214;2022-11-11T02:05:11;10.85;;;4.95;;
30398;SDS011;17195;50.838;7.214;2022-11-11T02:07:56;8.52;;;4.97;;
30398;SDS011;17195;50.838;7.214;2022-11-11T02:10:25;8.45;;;4.95;;
30398;SDS011;17195;50.838;7.214;2022-11-11T02:12:53;7.78;;;4.57;;
30398;SDS011;17195;50.838;7.214;2022-11-11T02:15:38;8.63;;;4.07;;
30398;SDS011;17195;50.838;7.214;2022-11-11T02:18:04;7.97;;;4.03;;
30398;SDS011;17195;50.838;7.214;2022-11-11T02:20:31;6.68;;;3.88;;
30398;SDS011;17195;50.838;7.214;2022-11-11T02:23:07;8.30;;;4.18;;
30398;SDS011;17195;50.838;7.214;2022-11-11T02:25:49;5.88;;;3.95;;
30398;SDS011;17195;50.838;7.214;2022-11-11T02:28:17;9.63;;;3.25;;
30398;SDS011;17195;50.838;7.214;2022-11-11T02:30:44;5.90;;;3.95;;
30398;SDS011;17195;50.838;7.214;2022-11-11T02:33:10;8.48;;;4.22;;
30398;SDS011;17195;50.838;7.214;2022-11-11T02:35:37;8.95;;;4.20;;
30398;SDS011;17195;50.838;7.214;2022-11-11T02:38:07;8.00;;;4.60;;
30398;SDS011;17195;50.838;7.214;2022-11-11T02:43:27;8.35;;;3.70;;
30398;SDS011;17195;50.838;7.214;2022-11-11T02:45:53;9.13;;;4.47;;
30398;SDS011;17195;50.838;7.214;2022-11-11T02:48:19;5.78;;;3.60;;
30398;SDS011;17195;50.838;7.214;2022-11-11T02:50:44;8.65;;;4.20;;
30398;SDS011;17195;50.838;7.214;2022-11-11T02:53:10;12.63;;;4.70;;
30398;SDS011;17195;50.838;7.214;2022-11-11T02:55:35;8.23;;;4.30;;
30398;SDS011;17195;50.838;7.214;2022-11-11T02:58:01;8.10;;;3.72;;
30398;SDS011;17195;50.838;7.214;2022-11-11T03:00:27;5.35;;;3.22;;
30398;SDS011;17195;50.838;7.214;2022-11-11T03:02:52;6.93;;;3.40;;
30398;SDS011;17195;50.838;7.214;2022-11-11T03:05:18;6.20;;;3.50;;
30398;SDS011;17195;50.838;7.214;2022-11-11T03:07:43;5.03;;;3.63;;
30398;SDS011;17195;50.838;7.214;2022-11-11T03:10:09;8.05;;;3.70;;
30398;SDS011;17195;50.838;7.214;2022-11-11T03:12:34;7.05;;;3.53;;
30398;SDS011;17195;50.838;7.214;2022-11-11T03:15:00;8.98;;;4.13;;
30398;SDS011;17195;50.838;7.214;2022-11-11T03:17:26;6.82;;;3.80;;
30398;SDS011;17195;50.838;7.214;2022-11-11T03:20:05;8.38;;;4.30;;
30398;SDS011;17195;50.838;7.214;2022-11-11T03:25:30;10.80;;;4.50;;
30398;SDS011;17195;50.838;7.214;2022-11-11T03:28:03;11.10;;;4.53;;
30398;SDS011;17195;50.838;7.214;2022-11-11T03:30:33;7.35;;;4.28;;
30398;SDS011;17195;50.838;7.214;2022-11-11T03:32:59;9.65;;;4.78;;
30398;SDS011;17195;50.838;7.214;2022-11-11T03:35:25;11.75;;;5.55;;
30398;SDS011;17195;50.838;7.214;2022-11-11T03:37:51;10.18;;;5.22;;
30398;SDS011;17195;50.838;7.214;2022-11-11T03:40:35;9.55;;;5.10;;
30398;SDS011;17195;50.838;7.214;2022-11-11T03:43:01;9.98;;;4.70;;
30398;SDS011;17195;50.838;7.214;2022-11-11T03:45:27;6.65;;;4.05;;
30398;SDS011;17195;50.838;7.214;2022-11-11T03:47:52;8.65;;;4.63;;
30398;SDS011;17195;50.838;7.214;2022-11-11T03:50:19;8.18;;;3.95;;
30398;SDS011;17195;50.838;7.214;2022-11-11T03:52:45;6.90;;;3.63;;
30398;SDS011;17195;50.838;7.214;2022-11-11T03:55:11;6.80;;;3.53;;
30398;SDS011;17195;50.838;7.214;2022-11-11T03:57:38;5.00;;;3.17;;
30398;SDS011;17195;50.838;7.214;2022-11-11T04:00:09;7.22;;;3.03;;
30398;SDS011;17195;50.838;7.214;2022-11-11T04:02:36;7.25;;;3.72;;
30398;SDS011;17195;50.838;7.214;2022-11-11T04:05:21;5.38;;;3.22;;
30398;SDS011;17195;50.838;7.214;2022-11-11T04:08:08;4.75;;;3.45;;
30398;SDS011;17195;50.838;7.214;2022-11-11T04:10:55;4.72;;;3.60;;
30398;SDS011;17195;50.838;7.214;2022-11-11T04:13:21;5.68;;;3.47;;
30398;SDS011;17195;50.838;7.214;2022-11-11T04:16:05;5.22;;;3.75;;
30398;SDS011;17195;50.838;7.214;2022-11-11T04:18:31;6.88;;;3.60;;
30398;SDS011;17195;50.838;7.214;2022-11-11T04:21:16;6.25;;;3.33;;
30398;SDS011;17195;50.838;7.214;2022-11-11T04:24:01;6.95;;;3.33;;
30398;SDS011;17195;50.838;7.214;2022-11-11T04:26:26;4.47;;;3.40;;
30398;SDS011;17195;50.838;7.214;2022-11-11T04:28:52;8.50;;;3.92;;
30398;SDS011;17195;50.838;7.214;2022-11-11T04:31:36;6.00;;;3.50;;
30398;SDS011;17195;50.838;7.214;2022-11-11T04:34:22;7.43;;;3.58;;
30398;SDS011;17195;50.838;7.214;2022-11-11T04:36:47;4.20;;;3.42;;
30398;SDS011;17195;50.838;7.214;2022-11-11T04:39:13;8.80;;;5.63;;
30398;SDS011;17195;50.838;7.214;2022-11-11T04:41:57;10.13;;;4.68;;
30398;SDS011;17195;50.838;7.214;2022-11-11T04:44:23;8.05;;;4.90;;
30398;SDS011;17195;50.838;7.214;2022-11-11T04:47:07;9.30;;;4.43;;
30398;SDS011;17195;50.838;7.214;2022-11-11T04:49:32;8.95;;;4.45;;
30398;SDS011;17195;50.838;7.214;2022-11-11T04:51:58;9.00;;;4.75;;
30398;SDS011;17195;50.838;7.214;2022-11-11T04:54:42;10.82;;;4.88;;
30398;SDS011;17195;50.838;7.214;2022-11-11T04:57:26;7.55;;;4.63;;
30398;SDS011;17195;50.838;7.214;2022-11-11T04:59:51;9.30;;;4.53;;
30398;SDS011;17195;50.838;7.214;2022-11-11T05:02:17;8.02;;;4.45;;
30398;SDS011;17195;50.838;7.214;2022-11-11T05:05:01;9.75;;;4.32;;
30398;SDS011;17195;50.838;7.214;2022-11-11T05:07:27;8.75;;;4.85;;
30398;SDS011;17195;50.838;7.214;2022-11-11T05:10:11;9.30;;;4.88;;
30398;SDS011;17195;50.838;7.214;2022-11-11T05:12:37;10.35;;;5.22;;
30398;SDS011;17195;50.838;7.214;2022-11-11T05:15:02;6.28;;;4.78;;
30398;SDS011;17195;50.838;7.214;2022-11-11T05:17:46;10.07;;;4.40;;
30398;SDS011;17195;50.838;7.214;2022-11-11T05:20:38;8.48;;;4.45;;
30398;SDS011;17195;50.838;7.214;2022-11-11T05:23:23;8.57;;;4.35;;
30398;SDS011;17195;50.838;7.214;2022-11-11T05:28:33;5.68;;;3.90;;
30398;SDS011;17195;50.838;7.214;2022-11-11T05:30:59;7.03;;;3.85;;
30398;SDS011;17195;50.838;7.214;2022-11-11T05:33:24;11.00;;;4.65;;
30398;SDS011;17195;50.838;7.214;2022-11-11T05:35:50;6.40;;;3.80;;
30398;SDS011;17195;50.838;7.214;2022-11-11T05:38:15;8.57;;;4.22;;
30398;SDS011;17195;50.838;7.214;2022-11-11T05:40:44;10.20;;;4.72;;
30398;SDS011;17195;50.838;7.214;2022-11-11T05:43:09;7.65;;;5.50;;
30398;SDS011;17195;50.838;7.214;2022-11-11T05:45:35;9.80;;;5.90;;
30398;SDS011;17195;50.838;7.214;2022-11-11T05:48:01;8.27;;;4.32;;
30398;SDS011;17195;50.838;7.214;2022-11-11T05:50:27;7.55;;;4.35;;
30398;SDS011;17195;50.838;7.214;2022-11-11T05:52:52;6.50;;;4.03;;
30398;SDS011;17195;50.838;7.214;2022-11-11T05:55:20;8.38;;;4.22;;
30398;SDS011;17195;50.838;7.214;2022-11-11T05:57:45;9.10;;;4.78;;
30398;SDS011;17195;50.838;7.214;2022-11-11T06:00:11;9.57;;;4.68;;
30398;SDS011;17195;50.838;7.214;2022-11-11T06:02:37;9.55;;;5.13;;
30398;SDS011;17195;50.838;7.214;2022-11-11T06:05:03;9.60;;;4.55;;
30398;SDS011;17195;50.838;7.214;2022-11-11T06:07:29;11.68;;;4.95;;
30398;SDS011;17195;50.838;7.214;2022-11-11T06:09:55;11.00;;;4.30;;
30398;SDS011;17195;50.838;7.214;2022-11-11T06:12:41;9.48;;;4.57;;
30398;SDS011;17195;50.838;7.214;2022-11-11T06:15:27;9.55;;;4.97;;
30398;SDS011;17195;50.838;7.214;2022-11-11T06:17:53;9.07;;;5.18;;
30398;SDS011;17195;50.838;7.214;2022-11-11T06:20:19;10.68;;;5.82;;
30398;SDS011;17195;50.838;7.214;2022-11-11T06:22:44;15.10;;;6.22;;
30398;SDS011;17195;50.838;7.214;2022-11-11T06:25:26;8.13;;;5.50;;
30398;SDS011;17195;50.838;7.214;2022-11-11T06:28:12;10.13;;;5.30;;
30398;SDS011;17195;50.838;7.214;2022-11-11T06:30:38;8.85;;;5.25;;
30398;SDS011;17195;50.838;7.214;2022-11-11T06:33:04;9.10;;;5.22;;
30398;SDS011;17195;50.838;7.214;2022-11-11T06:35:34;10.88;;;5.72;;
30398;SDS011;17195;50.838;7.214;2022-11-11T06:38:01;12.73;;;5.82;;
30398;SDS011;17195;50.838;7.214;2022-11-11T06:40:27;9.35;;;5.32;;
30398;SDS011;17195;50.838;7.214;2022-11-11T06:42:53;9.48;;;5.22;;
30398;SDS011;17195;50.838;7.214;2022-11-11T06:45:18;13.07;;;6.32;;
30398;SDS011;17195;50.838;7.214;2022-11-11T06:47:44;8.93;;;6.20;;
30398;SDS011;17195;50.838;7.214;2022-11-11T06:50:10;14.73;;;8.38;;
30398;SDS011;17195;50.838;7.214;2022-11-11T06:52:35;11.07;;;7.22;;
30398;SDS011;17195;50.838;7.214;2022-11-11T06:55:01;11.77;;;6.32;;
30398;SDS011;17195;50.838;7.214;2022-11-11T06:57:26;10.82;;;6.53;;
30398;SDS011;17195;50.838;7.214;2022-11-11T06:59:52;11.70;;;6.25;;
30398;SDS011;17195;50.838;7.214;2022-11-11T07:02:17;10.02;;;5.90;;
30398;SDS011;17195;50.838;7.214;2022-11-11T07:04:43;10.73;;;6.13;;
30398;SDS011;17195;50.838;7.214;2022-11-11T07:07:08;11.57;;;7.00;;
30398;SDS011;17195;50.838;7.214;2022-11-11T07:09:34;11.73;;;6.05;;
30398;SDS011;17195;50.838;7.214;2022-11-11T07:11:59;12.63;;;6.40;;
30398;SDS011;17195;50.838;7.214;2022-11-11T07:14:25;11.02;;;5.85;;
30398;SDS011;17195;50.838;7.214;2022-11-11T07:16:51;13.88;;;6.47;;
30398;SDS011;17195;50.838;7.214;2022-11-11T07:19:17;12.95;;;6.45;;
30398;SDS011;17195;50.838;7.214;2022-11-11T07:21:42;11.38;;;6.60;;
30398;SDS011;17195;50.838;7.214;2022-11-11T07:24:08;16.77;;;9.40;;
30398;SDS011;17195;50.838;7.214;2022-11-11T07:26:33;12.75;;;7.55;;
30398;SDS011;17195;50.838;7.214;2022-11-11T07:28:59;15.57;;;7.50;;
30398;SDS011;17195;50.838;7.214;2022-11-11T07:31:24;11.13;;;7.15;;
30398;SDS011;17195;50.838;7.214;2022-11-11T07:33:50;12.65;;;6.60;;
30398;SDS011;17195;50.838;7.214;2022-11-11T07:36:15;12.70;;;5.90;;
30398;SDS011;17195;50.838;7.214;2022-11-11T07:38:41;9.77;;;6.25;;
30398;SDS011;17195;50.838;7.214;2022-11-11T07:41:06;11.20;;;6.57;;
30398;SDS011;17195;50.838;7.214;2022-11-11T07:43:32;8.98;;;5.82;;
30398;SDS011;17195;50.838;7.214;2022-11-11T07:45:57;14.75;;;6.30;;
30398;SDS011;17195;50.838;7.214;2022-11-11T07:48:23;13.20;;;6.40;;
30398;SDS011;17195;50.838;7.214;2022-11-11T07:50:50;10.70;;;7.20;;
30398;SDS011;17195;50.838;7.214;2022-11-11T07:53:17;16.60;;;7.88;;
30398;SDS011;17195;50.838;7.214;2022-11-11T07:55:43;13.18;;;6.57;;
30398;SDS011;17195;50.838;7.214;2022-11-11T07:58:10;10.88;;;6.75;;
30398;SDS011;17195;50.838;7.214;2022-11-11T08:00:36;13.93;;;7.78;;
30398;SDS011;17195;50.838;7.214;2022-11-11T08:03:02;13.95;;;8.30;;
30398;SDS011;17195;50.838;7.214;2022-11-11T08:05:28;16.02;;;9.02;;
30398;SDS011;17195;50.838;7.214;2022-11-11T08:07:53;16.00;;;8.75;;
30398;SDS011;17195;50.838;7.214;2022-11-11T08:10:19;15.05;;;8.10;;
30398;SDS011;17195;50.838;7.214;2022-11-11T08:12:44;14.45;;;8.63;;
30398;SDS011;17195;50.838;7.214;2022-11-11T08:15:29;15.40;;;8.20;;
30398;SDS011;17195;50.838;7.214;2022-11-11T08:17:54;14.90;;;8.57;;
30398;SDS011;17195;50.838;7.214;2022-11-11T08:20:20;15.95;;;8.40;;
30398;SDS011;17195;50.838;7.214;2022-11-11T08:22:45;13.80;;;8.18;;
30398;SDS011;17195;50.838;7.214;2022-11-11T08:25:11;17.85;;;8.70;;
30398;SDS011;17195;50.838;7.214;2022-11-11T08:27:40;17.52;;;8.15;;
30398;SDS011;17195;50.838;7.214;2022-11-11T08:30:06;12.27;;;8.18;;
30398;SDS011;17195;50.838;7.214;2022-11-11T08:32:33;19.70;;;9.88;;
30398;SDS011;17195;50.838;7.214;2022-11-11T08:34:58;17.50;;;9.38;;
30398;SDS011;17195;50.838;7.214;2022-11-11T08:37:24;15.70;;;9.13;;
30398;SDS011;17195;50.838;7.214;2022-11-11T08:39:49;14.07;;;8.40;;
30398;SDS011;17195;50.838;7.214;2022-11-11T08:42:16;14.85;;;8.52;;
30398;SDS011;17195;50.838;7.214;2022-11-11T08:44:42;14.32;;;8.13;;
30398;SDS011;17195;50.838;7.214;2022-11-11T08:47:08;13.98;;;7.15;;
30398;SDS011;17195;50.838;7.214;2022-11-11T08:49:33;14.38;;;7.68;;
30398;SDS011;17195;50.838;7.214;2022-11-11T08:51:59;15.70;;;7.43;;
30398;SDS011;17195;50.838;7.214;2022-11-11T08:54:25;15.85;;;7.38;;
30398;SDS011;17195;50.838;7.214;2022-11-11T08:56:50;12.85;;;7.15;;
30398;SDS011;17195;50.838;7.214;2022-11-11T08:59:16;17.38;;;7.97;;
30398;SDS011;17195;50.838;7.214;2022-11-11T09:01:41;14.55;;;9.57;;
30398;SDS011;17195;50.838;7.214;2022-11-11T09:04:07;14.70;;;9.57;;
30398;SDS011;17195;50.838;7.214;2022-11-11T09:06:32;17.02;;;10.23;;
30398;SDS011;17195;50.838;7.214;2022-11-11T09:08:58;15.48;;;9.75;;
30398;SDS011;17195;50.838;7.214;2022-11-11T09:11:23;14.07;;;9.55;;
30398;SDS011;17195;50.838;7.214;2022-11-11T09:13:49;16.65;;;8.52;;
30398;SDS011;17195;50.838;7.214;2022-11-11T09:16:14;15.77;;;8.88;;
30398;SDS011;17195;50.838;7.214;2022-11-11T09:18:40;12.27;;;7.97;;
30398;SDS011;17195;50.838;7.214;2022-11-11T09:21:06;9.30;;;6.38;;
30398;SDS011;17195;50.838;7.214;2022-11-11T09:23:32;14.82;;;5.70;;
30398;SDS011;17195;50.838;7.214;2022-11-11T09:26:00;8.45;;;5.57;;
30398;SDS011;17195;50.838;7.214;2022-11-11T09:28:28;8.38;;;5.50;;
30398;SDS011;17195;50.838;7.214;2022-11-11T09:30:57;9.80;;;4.97;;
30398;SDS011;17195;50.838;7.214;2022-11-11T09:33:26;12.18;;;6.60;;
30398;SDS011;17195;50.838;7.214;2022-11-11T09:35:52;8.40;;;5.35;;
30398;SDS011;17195;50.838;7.214;2022-11-11T09:38:17;11.25;;;4.88;;
30398;SDS011;17195;50.838;7.214;2022-11-11T09:43:53;8.52;;;5.43;;
30398;SDS011;17195;50.838;7.214;2022-11-11T09:51:47;8.93;;;4.85;;
30398;SDS011;17195;50.838;7.214;2022-11-11T09:54:24;8.95;;;5.10;;
30398;SDS011;17195;50.838;7.214;2022-11-11T09:57:13;8.45;;;5.00;;
30398;SDS011;17195;50.838;7.214;2022-11-11T09:59:48;9.25;;;4.88;;
30398;SDS011;17195;50.838;7.214;2022-11-11T10:02:18;9.95;;;4.43;;
30398;SDS011;17195;50.838;7.214;2022-11-11T10:04:56;9.48;;;4.35;;
30398;SDS011;17195;50.838;7.214;2022-11-11T10:10:19;10.35;;;4.38;;
30398;SDS011;17195;50.838;7.214;2022-11-11T10:12:55;7.60;;;4.40;;
30398;SDS011;17195;50.838;7.214;2022-11-11T10:15:22;8.40;;;4.68;;
30398;SDS011;17195;50.838;7.214;2022-11-11T10:20:55;8.02;;;3.90;;
30398;SDS011;17195;50.838;7.214;2022-11-11T10:23:25;6.45;;;3.28;;
30398;SDS011;17195;50.838;7.214;2022-11-11T10:25:56;6.53;;;3.30;;
30398;SDS011;17195;50.838;7.214;2022-11-11T10:28:30;6.70;;;3.65;;
30398;SDS011;17195;50.838;7.214;2022-11-11T10:30:59;7.70;;;3.58;;
30398;SDS011;17195;50.838;7.214;2022-11-11T10:33:27;6.43;;;3.63;;
30398;SDS011;17195;50.838;7.214;2022-11-11T10:36:16;5.00;;;2.65;;
30398;SDS011;17195;50.838;7.214;2022-11-11T10:39:00;4.28;;;2.67;;
30398;SDS011;17195;50.838;7.214;2022-11-11T10:44:01;5.72;;;2.95;;
30398;SDS011;17195;50.838;7.214;2022-11-11T10:46:46;6.00;;;3.05;;
30398;SDS011;17195;50.838;7.214;2022-11-11T10:49:37;5.63;;;3.00;;
30398;SDS011;17195;50.838;7.214;2022-11-11T10:54:53;7.32;;;3.13;;
30398;SDS011;17195;50.838;7.214;2022-11-11T10:57:32;5.28;;;2.88;;
30398;SDS011;17195;50.838;7.214;2022-11-11T11:00:10;5.82;;;2.97;;
30398;SDS011;17195;50.838;7.214;2022-11-11T11:02:41;7.57;;;3.13;;
30398;SDS011;17195;50.838;7.214;2022-11-11T11:05:43;5.32;;;2.70;;
30398;SDS011;17195;50.838;7.214;2022-11-11T11:08:15;6.95;;;2.90;;
30398;SDS011;17195;50.838;7.214;2022-11-11T11:10:48;6.70;;;2.53;;
30398;SDS011;17195;50.838;7.214;2022-11-11T11:16:02;9.35;;;2.63;;
30398;SDS011;17195;50.838;7.214;2022-11-11T11:18:29;6.10;;;2.10;;
30398;SDS011;17195;50.838;7.214;2022-11-11T11:20:56;4.82;;;2.20;;
30398;SDS011;17195;50.838;7.214;2022-11-11T11:23:36;3.38;;;1.98;;
30398;SDS011;17195;50.838;7.214;2022-11-11T11:26:10;5.75;;;1.90;;
30398;SDS011;17195;50.838;7.214;2022-11-11T11:28:54;4.72;;;2.38;;
30398;SDS011;17195;50.838;7.214;2022-11-11T11:31:34;7.28;;;3.45;;
30398;SDS011;17195;50.838;7.214;2022-11-11T11:34:01;4.60;;;2.20;;
30398;SDS011;17195;50.838;7.214;2022-11-11T11:36:27;2.38;;;1.88;;
30398;SDS011;17195;50.838;7.214;2022-11-11T11:38:53;9.38;;;2.60;;
30398;SDS011;17195;50.838;7.214;2022-11-11T11:41:35;7.32;;;2.38;;
30398;SDS011;17195;50.838;7.214;2022-11-11T11:44:27;7.22;;;2.00;;
30398;SDS011;17195;50.838;7.214;2022-11-11T11:47:02;4.72;;;2.08;;
30398;SDS011;17195;50.838;7.214;2022-11-11T11:49:48;4.57;;;2.03;;
30398;SDS011;17195;50.838;7.214;2022-11-11T11:52:34;2.97;;;2.05;;
30398;SDS011;17195;50.838;7.214;2022-11-11T11:57:43;3.13;;;1.92;;
30398;SDS011;17195;50.838;7.214;2022-11-11T12:00:20;3.45;;;1.67;;
30398;SDS011;17195;50.838;7.214;2022-11-11T12:02:57;3.65;;;1.35;;
30398;SDS011;17195;50.838;7.214;2022-11-11T12:09:01;4.20;;;1.70;;
30398;SDS011;17195;50.838;7.214;2022-11-11T12:14:21;2.33;;;1.40;;
30398;SDS011;17195;50.838;7.214;2022-11-11T12:27:55;6.88;;;1.52;;
30398;SDS011;17195;50.838;7.214;2022-11-11T12:30:49;6.22;;;1.60;;
30398;SDS011;17195;50.838;7.214;2022-11-11T12:33:33;2.90;;;1.77;;
30398;SDS011;17195;50.838;7.214;2022-11-11T12:55:41;4.22;;;1.27;;
30398;SDS011;17195;50.838;7.214;2022-11-11T13:00:53;3.13;;;1.30;;
30398;SDS011;17195;50.838;7.214;2022-11-11T13:09:36;1.88;;;0.90;;
30398;SDS011;17195;50.838;7.214;2022-11-11T13:12:18;3.58;;;1.23;;
30398;SDS011;17195;50.838;7.214;2022-11-11T13:17:13;2.72;;;1.13;;
30398;SDS011;17195;50.838;7.214;2022-11-11T13:24:49;3.53;;;1.23;;
30398;SDS011;17195;50.838;7.214;2022-11-11T13:27:18;2.83;;;1.33;;
30398;SDS011;17195;50.838;7.214;2022-11-11T13:30:00;1.92;;;1.10;;
30398;SDS011;17195;50.838;7.214;2022-11-11T13:33:03;1.90;;;1.20;;
30398;SDS011;17195;50.838;7.214;2022-11-11T13:35:41;4.57;;;1.30;;
30398;SDS011;17195;50.838;7.214;2022-11-11T13:38:09;3.08;;;1.05;;
30398;SDS011;17195;50.838;7.214;2022-11-11T13:40:46;1.90;;;1.00;;
30398;SDS011;17195;50.838;7.214;2022-11-11T13:43:19;2.35;;;1.10;;
30398;SDS011;17195;50.838;7.214;2022-11-11T13:45:59;3.17;;;1.00;;
30398;SDS011;17195;50.838;7.214;2022-11-11T13:48:28;3.20;;;1.13;;
30398;SDS011;17195;50.838;7.214;2022-11-11T13:51:08;4.22;;;1.10;;
30398;SDS011;17195;50.838;7.214;2022-11-11T13:53:36;2.25;;;1.08;;
30398;SDS011;17195;50.838;7.214;2022-11-11T13:56:03;2.30;;;1.10;;
30398;SDS011;17195;50.838;7.214;2022-11-11T14:00:59;3.38;;;1.20;;
30398;SDS011;17195;50.838;7.214;2022-11-11T14:03:27;3.78;;;1.20;;
30398;SDS011;17195;50.838;7.214;2022-11-11T14:06:27;3.22;;;0.90;;
30398;SDS011;17195;50.838;7.214;2022-11-11T14:08:53;2.85;;;1.20;;
30398;SDS011;17195;50.838;7.214;2022-11-11T14:13:52;1.98;;;0.95;;
30398;SDS011;17195;50.838;7.214;2022-11-11T14:19:44;3.63;;;1.35;;
30398;SDS011;17195;50.838;7.214;2022-11-11T14:27:02;2.72;;;1.30;;
30398;SDS011;17195;50.838;7.214;2022-11-11T14:29:45;4.28;;;1.00;;
30398;SDS011;17195;50.838;7.214;2022-11-11T14:40:26;1.75;;;1.00;;
30398;SDS011;17195;50.838;7.214;2022-11-11T14:42:54;2.90;;;0.80;;
30398;SDS011;17195;50.838;7.214;2022-11-11T14:47:54;4.85;;;1.52;;
30398;SDS011;17195;50.838;7.214;2022-11-11T14:52:53;3.97;;;1.27;;
30398;SDS011;17195;50.838;7.214;2022-11-11T14:55:35;2.38;;;0.90;;
30398;SDS011;17195;50.838;7.214;2022-11-11T14:58:10;4.95;;;1.02;;
30398;SDS011;17195;50.838;7.214;2022-11-11T15:01:20;3.83;;;1.10;;
30398;SDS011;17195;50.838;7.214;2022-11-11T15:03:37;2.72;;;1.10;;
30398;SDS011;17195;50.838;7.214;2022-11-11T15:06:13;3.60;;;1.10;;
30398;SDS011;17195;50.838;7.214;2022-11-11T15:12:21;3.17;;;1.52;;
30398;SDS011;17195;50.838;7.214;2022-11-11T15:14:41;2.10;;;1.15;;
30398;SDS011;17195;50.838;7.214;2022-11-11T15:17:27;1.83;;;1.00;;
30398;SDS011;17195;50.838;7.214;2022-11-11T15:20:01;6.80;;;1.48;;
30398;SDS011;17195;50.838;7.214;2022-11-11T15:31:41;5.30;;;1.58;;
30398;SDS011;17195;50.838;7.214;2022-11-11T15:37:10;7.22;;;1.83;;
30398;SDS011;17195;50.838;7.214;2022-11-11T15:39:41;3.45;;;1.60;;
30398;SDS011;17195;50.838;7.214;2022-11-11T15:44:57;3.42;;;1.92;;
30398;SDS011;17195;50.838;7.214;2022-11-11T15:47:25;15.95;;;9.25;;
30398;SDS011;17195;50.838;7.214;2022-11-11T15:49:53;5.00;;;3.13;;
30398;SDS011;17195;50.838;7.214;2022-11-11T15:54:47;5.22;;;2.35;;
30398;SDS011;17195;50.838;7.214;2022-11-11T15:57:22;4.65;;;2.08;;
30398;SDS011;17195;50.838;7.214;2022-11-11T16:02:18;3.30;;;2.20;;
30398;SDS011;17195;50.838;7.214;2022-11-11T16:04:56;3.58;;;1.90;;
30398;SDS011;17195;50.838;7.214;2022-11-11T16:07:24;3.42;;;1.83;;
30398;SDS011;17195;50.838;7.214;2022-11-11T16:09:57;6.10;;;2.25;;
30398;SDS011;17195;50.838;7.214;2022-11-11T16:12:26;3.28;;;2.10;;
30398;SDS011;17195;50.838;7.214;2022-11-11T16:14:57;6.55;;;2.38;;
30398;SDS011;17195;50.838;7.214;2022-11-11T16:17:28;5.70;;;2.80;;
30398;SDS011;17195;50.838;7.214;2022-11-11T16:19:58;3.90;;;2.05;;
30398;SDS011;17195;50.838;7.214;2022-11-11T16:22:28;6.15;;;3.22;;
30398;SDS011;17195;50.838;7.214;2022-11-11T16:24:58;7.28;;;4.30;;
30398;SDS011;17195;50.838;7.214;2022-11-11T16:27:29;7.05;;;4.25;;
30398;SDS011;17195;50.838;7.214;2022-11-11T16:30:13;9.65;;;5.10;;
30398;SDS011;17195;50.838;7.214;2022-11-11T16:32:59;6.15;;;4.15;;
30398;SDS011;17195;50.838;7.214;2022-11-11T16:35:34;7.90;;;4.90;;
30398;SDS011;17195;50.838;7.214;2022-11-11T16:38:02;13.50;;;7.25;;
30398;SDS011;17195;50.838;7.214;2022-11-11T16:45:47;11.82;;;7.53;;
30398;SDS011;17195;50.838;7.214;2022-11-11T16:48:32;9.93;;;6.75;;
30398;SDS011;17195;50.838;7.214;2022-11-11T16:51:01;7.82;;;5.80;;
30398;SDS011;17195;50.838;7.214;2022-11-11T16:53:30;10.55;;;5.55;;
30398;SDS011;17195;50.838;7.214;2022-11-11T16:56:01;14.98;;;9.40;;
30398;SDS011;17195;50.838;7.214;2022-11-11T16:58:27;12.65;;;8.52;;
30398;SDS011;17195;50.838;7.214;2022-11-11T17:01:00;8.75;;;6.47;;
30398;SDS011;17195;50.838;7.214;2022-11-11T17:03:27;9.73;;;5.03;;
30398;SDS011;17195;50.838;7.214;2022-11-11T17:05:54;8.65;;;3.97;;
30398;SDS011;17195;50.838;7.214;2022-11-11T17:08:40;4.90;;;3.60;;
30398;SDS011;17195;50.838;7.214;2022-11-11T17:11:08;5.63;;;4.18;;
30398;SDS011;17195;50.838;7.214;2022-11-11T17:13:52;7.28;;;4.90;;
30398;SDS011;17195;50.838;7.214;2022-11-11T17:16:18;9.38;;;4.70;;
30398;SDS011;17195;50.838;7.214;2022-11-11T17:18:43;9.13;;;4.80;;
30398;SDS011;17195;50.838;7.214;2022-11-11T17:21:09;13.82;;;5.53;;
30398;SDS011;17195;50.838;7.214;2022-11-11T17:23:36;5.60;;;4.07;;
30398;SDS011;17195;50.838;7.214;2022-11-11T17:26:02;4.75;;;3.83;;
30398;SDS011;17195;50.838;7.214;2022-11-11T17:28:31;7.30;;;4.90;;
30398;SDS011;17195;50.838;7.214;2022-11-11T17:31:05;6.95;;;4.75;;
30398;SDS011;17195;50.838;7.214;2022-11-11T17:33:32;10.15;;;4.63;;
30398;SDS011;17195;50.838;7.214;2022-11-11T17:35:58;6.93;;;5.20;;
30398;SDS011;17195;50.838;7.214;2022-11-11T17:38:25;9.45;;;4.95;;